createdAt,value
2022-10-30T00:00:59.846Z,1003.78
2022-10-30T00:02:00.024Z,1003.74
2022-10-30T00:03:00.200Z,1003.74
2022-10-30T00:03:59.826Z,1003.73
2022-10-30T00:04:59.876Z,1003.73
2022-10-30T00:05:59.774Z,1003.72
2022-10-30T00:06:59.770Z,1003.73
2022-10-30T00:08:00.083Z,1003.74
2022-10-30T00:08:59.742Z,1003.71
2022-10-30T00:09:59.724Z,1003.74
2022-10-30T00:10:59.717Z,1003.72
2022-10-30T00:11:59.704Z,1003.69
2022-10-30T00:12:59.689Z,1003.69
2022-10-30T00:13:59.674Z,1003.72
2022-10-30T00:14:59.664Z,1003.73
2022-10-30T00:15:59.686Z,1003.73
2022-10-30T00:16:59.646Z,1003.76
2022-10-30T00:18:00.103Z,1003.75
2022-10-30T00:18:59.612Z,1003.77
2022-10-30T00:19:59.599Z,1003.78
2022-10-30T00:20:59.609Z,1003.77
2022-10-30T00:22:20.624Z,1003.74
2022-10-30T00:22:59.940Z,1003.73
2022-10-30T00:23:59.548Z,1003.71
2022-10-30T00:24:59.538Z,1003.72
2022-10-30T00:25:59.519Z,1003.74
2022-10-30T00:26:59.509Z,1003.74
2022-10-30T00:27:59.498Z,1003.73
2022-10-30T00:28:59.478Z,1003.78
2022-10-30T00:29:59.469Z,1003.77
2022-10-30T00:30:59.493Z,1003.76
2022-10-30T00:31:59.442Z,1003.78
2022-10-30T00:32:59.878Z,1003.75
2022-10-30T00:33:59.440Z,1003.73
2022-10-30T00:34:59.399Z,1003.69
2022-10-30T00:35:59.392Z,1003.75
2022-10-30T00:36:59.374Z,1003.71
2022-10-30T00:37:59.644Z,1003.70
2022-10-30T00:38:59.382Z,1003.69
2022-10-30T00:39:59.344Z,1003.67
2022-10-30T00:40:59.373Z,1003.69
2022-10-30T00:41:59.309Z,1003.71
2022-10-30T00:42:59.294Z,1003.65
2022-10-30T00:43:59.288Z,1003.68
2022-10-30T00:44:59.273Z,1003.66
2022-10-30T00:45:59.270Z,1003.69
2022-10-30T00:46:59.267Z,1003.68
2022-10-30T00:47:59.498Z,1003.67
2022-10-30T00:48:59.261Z,1003.67
2022-10-30T00:49:59.209Z,1003.61
2022-10-30T00:50:59.205Z,1003.61
2022-10-30T00:51:59.184Z,1003.61
2022-10-30T00:52:59.595Z,1003.62
2022-10-30T00:53:59.154Z,1003.62
2022-10-30T00:54:59.165Z,1003.61
2022-10-30T00:55:59.131Z,1003.58
2022-10-30T00:56:59.114Z,1003.64
2022-10-30T00:57:59.102Z,1003.66
2022-10-30T00:58:59.111Z,1003.64
2022-10-30T00:59:59.077Z,1003.65
2022-10-30T01:00:59.114Z,1003.68
2022-10-30T01:01:59.187Z,1003.67
2022-10-30T01:02:59.620Z,1003.70
2022-10-30T01:03:59.031Z,1003.69
2022-10-30T01:04:59.066Z,1003.70
2022-10-30T01:05:59.048Z,1003.72
2022-10-30T01:06:58.999Z,1003.75
2022-10-30T01:07:59.320Z,1003.78
2022-10-30T01:09:00.211Z,1003.79
2022-10-30T01:09:58.946Z,1003.79
2022-10-30T01:10:58.931Z,1003.79
2022-10-30T01:11:58.983Z,1003.77
2022-10-30T01:12:58.906Z,1003.75
2022-10-30T01:13:58.893Z,1003.78
2022-10-30T01:14:58.880Z,1003.76
2022-10-30T01:15:58.878Z,1003.77
2022-10-30T01:16:58.862Z,1003.78
2022-10-30T01:17:59.353Z,1003.76
2022-10-30T01:18:58.825Z,1003.81
2022-10-30T01:19:58.890Z,1003.84
2022-10-30T01:20:58.796Z,1003.82
2022-10-30T01:21:58.795Z,1003.88
2022-10-30T01:22:59.077Z,1003.89
2022-10-30T01:23:58.773Z,1003.92
2022-10-30T01:24:58.752Z,1003.94
2022-10-30T01:25:58.749Z,1003.98
2022-10-30T01:26:58.718Z,1003.96
2022-10-30T01:27:58.714Z,1003.98
2022-10-30T01:28:58.744Z,1003.93
2022-10-30T01:29:58.690Z,1003.97
2022-10-30T01:30:58.666Z,1003.99
2022-10-30T01:31:58.687Z,1003.99
2022-10-30T01:32:59.096Z,1004.01
2022-10-30T01:33:58.629Z,1004.02
2022-10-30T01:34:58.627Z,1004.00
2022-10-30T01:35:58.605Z,1003.99
2022-10-30T01:36:58.595Z,1003.96
2022-10-30T01:37:58.837Z,1004.03
2022-10-30T01:38:58.562Z,1003.99
2022-10-30T01:39:58.599Z,1003.96
2022-10-30T01:40:58.536Z,1003.95
2022-10-30T01:41:58.524Z,1003.98
2022-10-30T01:42:58.515Z,1004.00
2022-10-30T01:43:58.498Z,1003.91
2022-10-30T01:44:58.484Z,1003.93
2022-10-30T01:45:58.478Z,1003.87
2022-10-30T01:46:58.468Z,1003.91
2022-10-30T01:47:58.745Z,1003.95
2022-10-30T01:48:58.435Z,1003.96
2022-10-30T01:49:58.425Z,1003.91
2022-10-30T01:50:58.427Z,1003.96
2022-10-30T01:51:58.475Z,1003.98
2022-10-30T01:52:58.701Z,1003.94
2022-10-30T01:53:58.364Z,1003.92
2022-10-30T01:54:58.355Z,1003.93
2022-10-30T01:55:58.345Z,1003.93
2022-10-30T01:56:58.325Z,1003.93
2022-10-30T01:57:58.374Z,1003.97
2022-10-30T01:58:58.298Z,1004.00
2022-10-30T01:59:58.286Z,1003.99
2022-10-30T02:00:58.391Z,1004.01
2022-10-30T02:01:58.345Z,1004.01
2022-10-30T02:02:58.501Z,1003.97
2022-10-30T02:03:58.324Z,1004.00
2022-10-30T02:04:58.214Z,1003.97
2022-10-30T02:05:58.218Z,1003.93
2022-10-30T02:06:58.190Z,1003.93
2022-10-30T02:07:58.444Z,1003.96
2022-10-30T02:08:58.171Z,1003.96
2022-10-30T02:09:58.155Z,1003.97
2022-10-30T02:10:58.188Z,1003.98
2022-10-30T02:11:58.129Z,1003.97
2022-10-30T02:12:58.111Z,1003.97
2022-10-30T02:13:58.097Z,1003.96
2022-10-30T02:14:58.080Z,1003.97
2022-10-30T02:15:58.069Z,1003.95
2022-10-30T02:16:58.062Z,1003.94
2022-10-30T02:17:58.251Z,1003.93
2022-10-30T02:18:58.053Z,1003.90
2022-10-30T02:19:58.019Z,1003.88
2022-10-30T02:20:58.011Z,1003.88
2022-10-30T02:21:58.084Z,1003.86
2022-10-30T02:22:59.432Z,1003.82
2022-10-30T02:23:57.968Z,1003.84
2022-10-30T02:24:57.947Z,1003.81
2022-10-30T02:25:57.963Z,1003.82
2022-10-30T02:26:57.920Z,1003.84
2022-10-30T02:27:57.907Z,1003.84
2022-10-30T02:28:57.891Z,1003.84
2022-10-30T02:29:57.910Z,1003.84
2022-10-30T02:30:57.892Z,1003.85
2022-10-30T02:31:57.857Z,1003.89
2022-10-30T02:32:58.121Z,1003.85
2022-10-30T02:33:57.827Z,1003.83
2022-10-30T02:34:57.813Z,1003.85
2022-10-30T02:35:57.858Z,1003.89
2022-10-30T02:36:57.784Z,1003.86
2022-10-30T02:37:58.139Z,1003.90
2022-10-30T02:38:57.762Z,1003.88
2022-10-30T02:39:57.752Z,1003.85
2022-10-30T02:40:57.733Z,1003.90
2022-10-30T02:41:57.721Z,1003.85
2022-10-30T02:42:57.718Z,1003.89
2022-10-30T02:43:57.692Z,1003.91
2022-10-30T02:44:57.680Z,1003.88
2022-10-30T02:45:57.673Z,1003.85
2022-10-30T02:46:57.717Z,1003.83
2022-10-30T02:47:58.143Z,1003.85
2022-10-30T02:48:57.631Z,1003.89
2022-10-30T02:49:57.612Z,1003.88
2022-10-30T02:50:57.603Z,1003.86
2022-10-30T02:51:57.590Z,1003.87
2022-10-30T02:52:57.879Z,1003.85
2022-10-30T02:53:57.562Z,1003.84
2022-10-30T02:54:57.545Z,1003.86
2022-10-30T02:55:57.534Z,1003.87
2022-10-30T02:56:57.520Z,1003.88
2022-10-30T02:57:57.545Z,1003.89
2022-10-30T02:58:57.487Z,1003.86
2022-10-30T02:59:57.484Z,1003.88
2022-10-30T03:00:57.493Z,1003.92
2022-10-30T03:01:57.597Z,1003.88
2022-10-30T03:02:57.477Z,1003.92
2022-10-30T03:03:57.480Z,1003.89
2022-10-30T03:04:57.417Z,1003.89
2022-10-30T03:05:57.401Z,1003.93
2022-10-30T03:06:57.388Z,1003.94
2022-10-30T03:07:57.699Z,1003.91
2022-10-30T03:08:57.356Z,1003.90
2022-10-30T03:09:57.374Z,1003.87
2022-10-30T03:10:57.329Z,1003.85
2022-10-30T03:11:57.367Z,1003.88
2022-10-30T03:12:57.305Z,1003.84
2022-10-30T03:13:57.291Z,1003.91
2022-10-30T03:14:57.277Z,1003.81
2022-10-30T03:15:57.264Z,1003.82
2022-10-30T03:16:57.253Z,1003.82
2022-10-30T03:17:57.485Z,1003.78
2022-10-30T03:18:57.227Z,1003.81
2022-10-30T03:19:57.241Z,1003.81
2022-10-30T03:20:57.195Z,1003.80
2022-10-30T03:21:57.183Z,1003.81
2022-10-30T03:22:57.165Z,1003.82
2022-10-30T03:23:57.155Z,1003.80
2022-10-30T03:24:57.164Z,1003.83
2022-10-30T03:25:57.159Z,1003.85
2022-10-30T03:26:57.123Z,1003.85
2022-10-30T03:27:57.464Z,1003.83
2022-10-30T03:28:57.121Z,1003.80
2022-10-30T03:29:57.075Z,1003.83
2022-10-30T03:30:57.062Z,1003.84
2022-10-30T03:31:57.056Z,1003.88
2022-10-30T03:32:57.404Z,1003.86
2022-10-30T03:33:57.022Z,1003.84
2022-10-30T03:34:57.006Z,1003.84
2022-10-30T03:35:56.992Z,1003.85
2022-10-30T03:36:56.982Z,1003.89
2022-10-30T03:37:56.996Z,1003.88
2022-10-30T03:38:56.953Z,1003.89
2022-10-30T03:39:56.953Z,1003.88
2022-10-30T03:40:56.927Z,1003.91
2022-10-30T03:41:56.939Z,1003.93
2022-10-30T03:42:57.227Z,1003.95
2022-10-30T03:43:56.891Z,1003.89
2022-10-30T03:44:56.875Z,1003.90
2022-10-30T03:45:56.858Z,1003.89
2022-10-30T03:46:56.900Z,1003.88
2022-10-30T03:47:57.231Z,1003.93
2022-10-30T03:48:56.827Z,1003.93
2022-10-30T03:49:56.815Z,1003.96
2022-10-30T03:50:56.845Z,1003.95
2022-10-30T03:51:56.777Z,1003.88
2022-10-30T03:52:56.790Z,1003.87
2022-10-30T03:53:56.754Z,1003.85
2022-10-30T03:54:56.741Z,1003.88
2022-10-30T03:55:56.743Z,1003.88
2022-10-30T03:56:56.776Z,1003.84
2022-10-30T03:57:56.910Z,1003.84
2022-10-30T03:58:56.685Z,1003.89
2022-10-30T03:59:56.669Z,1003.91
2022-10-30T04:00:56.704Z,1003.95
2022-10-30T04:01:56.912Z,1003.95
2022-10-30T04:02:57.038Z,1003.98
2022-10-30T04:03:56.615Z,1003.95
2022-10-30T04:04:56.604Z,1003.89
2022-10-30T04:05:56.623Z,1003.85
2022-10-30T04:06:56.575Z,1003.90
2022-10-30T04:07:56.561Z,1003.93
2022-10-30T04:08:56.569Z,1003.91
2022-10-30T04:09:56.533Z,1003.88
2022-10-30T04:10:56.586Z,1003.87
2022-10-30T04:11:56.513Z,1003.91
2022-10-30T04:12:56.979Z,1003.95
2022-10-30T04:13:56.483Z,1003.96
2022-10-30T04:14:56.470Z,1003.91
2022-10-30T04:15:58.288Z,1003.89
2022-10-30T04:16:56.489Z,1003.87
2022-10-30T04:17:56.710Z,1003.86
2022-10-30T04:18:56.456Z,1003.93
2022-10-30T04:19:56.396Z,1003.92
2022-10-30T04:20:56.384Z,1003.95
2022-10-30T04:21:56.370Z,1003.90
2022-10-30T04:22:56.359Z,1003.91
2022-10-30T04:23:56.412Z,1003.95
2022-10-30T04:24:56.331Z,1003.94
2022-10-30T04:25:56.315Z,1003.97
2022-10-30T04:26:56.302Z,1003.92
2022-10-30T04:27:56.703Z,1003.91
2022-10-30T04:28:56.277Z,1003.92
2022-10-30T04:29:56.309Z,1003.98
2022-10-30T04:30:56.246Z,1003.93
2022-10-30T04:31:56.267Z,1003.97
2022-10-30T04:32:56.569Z,1003.96
2022-10-30T04:33:56.203Z,1003.94
2022-10-30T04:34:56.189Z,1003.93
2022-10-30T04:35:56.211Z,1003.96
2022-10-30T04:36:56.165Z,1003.92
2022-10-30T04:37:56.153Z,1003.93
2022-10-30T04:38:56.139Z,1003.95
2022-10-30T04:39:56.120Z,1003.94
2022-10-30T04:40:56.108Z,1003.95
2022-10-30T04:41:56.097Z,1003.96
2022-10-30T04:42:56.322Z,1003.93
2022-10-30T04:43:56.065Z,1003.91
2022-10-30T04:44:56.055Z,1003.93
2022-10-30T04:45:56.047Z,1003.93
2022-10-30T04:46:56.077Z,1003.89
2022-10-30T04:47:56.318Z,1003.93
2022-10-30T04:48:56.004Z,1003.93
2022-10-30T04:49:55.987Z,1003.96
2022-10-30T04:50:55.974Z,1003.92
2022-10-30T04:51:55.964Z,1003.89
2022-10-30T04:52:55.972Z,1003.93
2022-10-30T04:53:55.930Z,1003.90
2022-10-30T04:54:55.918Z,1003.89
2022-10-30T04:55:55.908Z,1003.90
2022-10-30T04:56:55.892Z,1003.92
2022-10-30T04:57:56.331Z,1003.95
2022-10-30T04:58:55.867Z,1003.92
2022-10-30T04:59:55.848Z,1003.91
2022-10-30T05:01:00.410Z,1003.90
2022-10-30T05:01:55.914Z,1003.87
2022-10-30T05:02:55.836Z,1003.90
2022-10-30T05:03:55.804Z,1003.84
2022-10-30T05:04:55.816Z,1003.84
2022-10-30T05:05:55.764Z,1003.84
2022-10-30T05:06:55.754Z,1003.84
2022-10-30T05:07:56.124Z,1003.85
2022-10-30T05:08:55.822Z,1003.83
2022-10-30T05:09:55.710Z,1003.82
2022-10-30T05:10:55.698Z,1003.79
2022-10-30T05:11:58.958Z,1003.79
2022-10-30T05:12:55.672Z,1003.82
2022-10-30T05:13:55.654Z,1003.82
2022-10-30T05:14:55.669Z,1003.81
2022-10-30T05:15:55.641Z,1003.79
2022-10-30T05:16:55.644Z,1003.82
2022-10-30T05:17:55.788Z,1003.83
2022-10-30T05:18:55.594Z,1003.86
2022-10-30T05:19:55.577Z,1003.87
2022-10-30T05:20:55.560Z,1003.89
2022-10-30T05:21:55.598Z,1003.88
2022-10-30T05:22:55.534Z,1003.89
2022-10-30T05:23:55.519Z,1003.94
2022-10-30T05:24:55.511Z,1003.90
2022-10-30T05:25:55.492Z,1003.95
2022-10-30T05:26:55.478Z,1003.88
2022-10-30T05:27:55.744Z,1003.88
2022-10-30T05:28:55.452Z,1003.86
2022-10-30T05:29:55.443Z,1003.88
2022-10-30T05:30:55.421Z,1003.87
2022-10-30T05:31:55.404Z,1003.87
2022-10-30T05:32:55.691Z,1003.91
2022-10-30T05:33:55.382Z,1003.93
2022-10-30T05:34:55.368Z,1003.93
2022-10-30T05:35:55.357Z,1003.90
2022-10-30T05:36:55.344Z,1003.97
2022-10-30T05:37:55.323Z,1003.88
2022-10-30T05:38:55.359Z,1003.90
2022-10-30T05:39:55.294Z,1003.91
2022-10-30T05:40:55.282Z,1003.85
2022-10-30T05:41:55.271Z,1003.92
2022-10-30T05:42:55.444Z,1003.95
2022-10-30T05:43:55.244Z,1003.98
2022-10-30T05:45:00.940Z,1003.98
2022-10-30T05:45:55.210Z,1003.94
2022-10-30T05:47:55.295Z,1003.94
2022-10-30T05:48:55.174Z,1003.94
2022-10-30T05:49:55.153Z,1003.97
2022-10-30T05:50:55.161Z,1003.99
2022-10-30T05:51:55.126Z,1004.00
2022-10-30T05:52:55.119Z,1004.01
2022-10-30T05:53:55.104Z,1004.04
2022-10-30T05:54:55.085Z,1004.03
2022-10-30T05:55:55.138Z,1004.03
2022-10-30T05:56:55.060Z,1003.98
2022-10-30T05:57:55.374Z,1003.96
2022-10-30T05:58:55.044Z,1003.97
2022-10-30T05:59:55.010Z,1004.00
2022-10-30T06:00:55.001Z,1003.95
2022-10-30T06:01:55.009Z,1003.95
2022-10-30T06:02:55.032Z,1003.96
2022-10-30T06:03:54.954Z,1003.91
2022-10-30T06:04:54.938Z,1003.96
2022-10-30T06:05:54.950Z,1003.98
2022-10-30T06:06:54.945Z,1003.97
2022-10-30T06:07:54.899Z,1003.97
2022-10-30T06:08:54.893Z,1003.97
2022-10-30T06:09:54.932Z,1004.01
2022-10-30T06:10:54.860Z,1003.94
2022-10-30T06:11:54.883Z,1004.00
2022-10-30T06:12:55.003Z,1004.02
2022-10-30T06:13:54.810Z,1004.01
2022-10-30T06:14:54.796Z,1004.02
2022-10-30T06:15:54.784Z,1004.00
2022-10-30T06:16:54.813Z,1004.04
2022-10-30T06:17:54.789Z,1004.06
2022-10-30T06:18:54.742Z,1004.08
2022-10-30T06:19:54.734Z,1004.08
2022-10-30T06:20:54.715Z,1004.04
2022-10-30T06:21:54.725Z,1004.11
2022-10-30T06:22:54.693Z,1004.06
2022-10-30T06:23:54.704Z,1004.03
2022-10-30T06:24:54.671Z,1004.07
2022-10-30T06:25:54.693Z,1004.10
2022-10-30T06:26:54.627Z,1004.10
2022-10-30T06:27:54.616Z,1004.07
2022-10-30T06:28:54.599Z,1004.06
2022-10-30T06:29:54.586Z,1004.04
2022-10-30T06:30:54.637Z,1004.04
2022-10-30T06:31:54.622Z,1004.01
2022-10-30T06:32:54.658Z,1004.05
2022-10-30T06:33:54.526Z,1004.05
2022-10-30T06:34:54.511Z,1004.02
2022-10-30T06:35:54.498Z,1004.04
2022-10-30T06:36:54.566Z,1003.98
2022-10-30T06:37:54.473Z,1004.00
2022-10-30T06:38:54.456Z,1004.01
2022-10-30T06:39:54.593Z,1004.02
2022-10-30T06:40:54.458Z,1004.00
2022-10-30T06:41:54.410Z,1004.01
2022-10-30T06:42:54.394Z,1004.01
2022-10-30T06:43:54.383Z,1003.99
2022-10-30T06:44:54.403Z,1003.97
2022-10-30T06:45:54.443Z,1003.98
2022-10-30T06:46:54.345Z,1003.98
2022-10-30T06:47:54.350Z,1004.00
2022-10-30T06:48:54.508Z,1004.07
2022-10-30T06:49:54.377Z,1004.05
2022-10-30T06:50:54.313Z,1004.06
2022-10-30T06:51:54.274Z,1004.06
2022-10-30T06:52:54.261Z,1004.07
2022-10-30T06:53:54.248Z,1004.07
2022-10-30T06:54:54.248Z,1004.11
2022-10-30T06:55:58.665Z,1004.14
2022-10-30T06:56:54.198Z,1004.12
2022-10-30T06:57:54.174Z,1004.08
2022-10-30T06:58:54.202Z,1004.10
2022-10-30T06:59:54.154Z,1004.10
2022-10-30T07:00:54.144Z,1004.06
2022-10-30T07:01:57.298Z,1004.11
2022-10-30T07:02:54.102Z,1004.11
2022-10-30T07:03:54.091Z,1004.07
2022-10-30T07:04:54.113Z,1004.06
2022-10-30T07:05:54.249Z,1004.08
2022-10-30T07:06:54.050Z,1004.06
2022-10-30T07:07:54.144Z,1004.12
2022-10-30T07:08:54.015Z,1004.09
2022-10-30T07:09:54.013Z,1004.14
2022-10-30T07:10:53.992Z,1004.15
2022-10-30T07:11:56.695Z,1004.13
2022-10-30T07:12:53.997Z,1004.17
2022-10-30T07:13:53.942Z,1004.15
2022-10-30T07:14:53.932Z,1004.13
2022-10-30T07:15:53.923Z,1004.12
2022-10-30T07:16:53.902Z,1004.14
2022-10-30T07:17:53.975Z,1004.12
2022-10-30T07:18:53.876Z,1004.08
2022-10-30T07:19:53.861Z,1004.13
2022-10-30T07:20:53.844Z,1004.09
2022-10-30T07:21:53.826Z,1004.06
2022-10-30T07:22:53.828Z,1004.08
2022-10-30T07:23:53.815Z,1004.09
2022-10-30T07:24:53.853Z,1004.08
2022-10-30T07:25:53.787Z,1004.16
2022-10-30T07:26:53.761Z,1004.11
2022-10-30T07:27:53.738Z,1004.17
2022-10-30T07:28:53.729Z,1004.23
2022-10-30T07:29:53.712Z,1004.26
2022-10-30T07:30:53.704Z,1004.27
2022-10-30T07:32:08.835Z,1004.25
2022-10-30T07:32:53.672Z,1004.29
2022-10-30T07:33:53.656Z,1004.28
2022-10-30T07:34:53.642Z,1004.36
2022-10-30T07:35:53.656Z,1004.37
2022-10-30T07:36:53.617Z,1004.33
2022-10-30T07:37:53.614Z,1004.34
2022-10-30T07:38:53.585Z,1004.36
2022-10-30T07:39:53.567Z,1004.42
2022-10-30T07:40:53.556Z,1004.33
2022-10-30T07:41:53.551Z,1004.32
2022-10-30T07:42:53.527Z,1004.30
2022-10-30T07:43:53.566Z,1004.34
2022-10-30T07:44:53.499Z,1004.38
2022-10-30T07:45:53.484Z,1004.41
2022-10-30T07:46:53.477Z,1004.41
2022-10-30T07:47:53.453Z,1004.40
2022-10-30T07:48:53.447Z,1004.39
2022-10-30T07:49:53.492Z,1004.38
2022-10-30T07:50:53.421Z,1004.41
2022-10-30T07:51:53.396Z,1004.39
2022-10-30T07:52:53.386Z,1004.49
2022-10-30T07:53:53.368Z,1004.53
2022-10-30T07:54:53.356Z,1004.55
2022-10-30T07:55:53.343Z,1004.56
2022-10-30T07:56:53.331Z,1004.54
2022-10-30T07:57:53.312Z,1004.54
2022-10-30T07:58:53.307Z,1004.54
2022-10-30T07:59:54.982Z,1004.55
2022-10-30T08:00:53.355Z,1004.55
2022-10-30T08:01:53.409Z,1004.55
2022-10-30T08:02:53.292Z,1004.61
2022-10-30T08:03:53.229Z,1004.60
2022-10-30T08:04:53.228Z,1004.55
2022-10-30T08:05:53.203Z,1004.60
2022-10-30T08:06:53.196Z,1004.62
2022-10-30T08:07:53.225Z,1004.61
2022-10-30T08:08:53.189Z,1004.61
2022-10-30T08:09:53.143Z,1004.59
2022-10-30T08:10:53.146Z,1004.59
2022-10-30T08:11:53.118Z,1004.56
2022-10-30T08:12:53.105Z,1004.62
2022-10-30T08:13:53.117Z,1004.61
2022-10-30T08:14:53.078Z,1004.65
2022-10-30T08:15:53.080Z,1004.63
2022-10-30T08:16:53.047Z,1004.57
2022-10-30T08:17:53.101Z,1004.63
2022-10-30T08:18:53.027Z,1004.60
2022-10-30T08:19:53.003Z,1004.62
2022-10-30T08:20:53.021Z,1004.64
2022-10-30T08:21:56.115Z,1004.61
2022-10-30T08:22:52.965Z,1004.63
2022-10-30T08:23:53.009Z,1004.61
2022-10-30T08:24:52.944Z,1004.67
2022-10-30T08:25:52.942Z,1004.63
2022-10-30T08:26:52.918Z,1004.65
2022-10-30T08:27:52.910Z,1004.67
2022-10-30T08:28:52.883Z,1004.66
2022-10-30T08:29:52.873Z,1004.68
2022-10-30T08:30:52.861Z,1004.71
2022-10-30T08:31:52.845Z,1004.69
2022-10-30T08:32:52.832Z,1004.71
2022-10-30T08:33:52.815Z,1004.72
2022-10-30T08:34:52.827Z,1004.73
2022-10-30T08:35:52.793Z,1004.73
2022-10-30T08:36:52.805Z,1004.75
2022-10-30T08:37:52.767Z,1004.71
2022-10-30T08:38:52.748Z,1004.71
2022-10-30T08:39:52.736Z,1004.76
2022-10-30T08:40:52.755Z,1004.74
2022-10-30T08:41:52.713Z,1004.77
2022-10-30T08:42:52.693Z,1004.73
2022-10-30T08:43:52.687Z,1004.76
2022-10-30T08:44:52.692Z,1004.71
2022-10-30T08:45:52.658Z,1004.74
2022-10-30T08:46:52.645Z,1004.70
2022-10-30T08:47:52.635Z,1004.71
2022-10-30T08:48:52.612Z,1004.71
2022-10-30T08:49:52.606Z,1004.72
2022-10-30T08:50:52.584Z,1004.70
2022-10-30T08:51:52.629Z,1004.72
2022-10-30T08:52:54.741Z,1004.69
2022-10-30T08:53:52.550Z,1004.62
2022-10-30T08:54:52.531Z,1004.58
2022-10-30T08:55:52.521Z,1004.59
2022-10-30T08:56:52.509Z,1004.55
2022-10-30T08:57:52.553Z,1004.54
2022-10-30T08:58:52.481Z,1004.49
2022-10-30T08:59:52.474Z,1004.46
2022-10-30T09:00:55.905Z,1004.44
2022-10-30T09:01:52.547Z,1004.45
2022-10-30T09:02:52.427Z,1004.42
2022-10-30T09:03:52.500Z,1004.43
2022-10-30T09:04:52.444Z,1004.45
2022-10-30T09:05:52.389Z,1004.41
2022-10-30T09:06:52.379Z,1004.43
2022-10-30T09:07:52.375Z,1004.47
2022-10-30T09:08:52.378Z,1004.41
2022-10-30T09:09:52.369Z,1004.44
2022-10-30T09:10:52.331Z,1004.43
2022-10-30T09:11:52.333Z,1004.44
2022-10-30T09:12:52.307Z,1004.40
2022-10-30T09:13:52.430Z,1004.39
2022-10-30T09:14:52.265Z,1004.41
2022-10-30T09:15:52.255Z,1004.41
2022-10-30T09:16:52.241Z,1004.39
2022-10-30T09:17:52.236Z,1004.35
2022-10-30T09:18:52.271Z,1004.40
2022-10-30T09:19:52.216Z,1004.40
2022-10-30T09:20:52.234Z,1004.40
2022-10-30T09:21:52.200Z,1004.38
2022-10-30T09:22:52.173Z,1004.37
2022-10-30T09:23:52.160Z,1004.34
2022-10-30T09:24:52.136Z,1004.31
2022-10-30T09:25:52.129Z,1004.34
2022-10-30T09:26:52.135Z,1004.31
2022-10-30T09:27:52.103Z,1004.33
2022-10-30T09:28:52.089Z,1004.29
2022-10-30T09:29:52.129Z,1004.31
2022-10-30T09:30:52.072Z,1004.32
2022-10-30T09:31:52.049Z,1004.31
2022-10-30T09:32:54.913Z,1004.28
2022-10-30T09:33:52.031Z,1004.25
2022-10-30T09:34:52.009Z,1004.21
2022-10-30T09:35:52.001Z,1004.21
2022-10-30T09:36:52.018Z,1004.17
2022-10-30T09:37:51.974Z,1004.18
2022-10-30T09:38:51.956Z,1004.21
2022-10-30T09:39:51.944Z,1004.22
2022-10-30T09:40:51.929Z,1004.24
2022-10-30T09:41:51.973Z,1004.18
2022-10-30T09:42:51.904Z,1004.19
2022-10-30T09:43:51.897Z,1004.17
2022-10-30T09:45:08.130Z,1004.12
2022-10-30T09:45:51.875Z,1004.15
2022-10-30T09:46:51.855Z,1004.18
2022-10-30T09:47:51.887Z,1004.18
2022-10-30T09:48:51.831Z,1004.24
2022-10-30T09:49:51.828Z,1004.23
2022-10-30T09:50:51.804Z,1004.26
2022-10-30T09:51:51.793Z,1004.27
2022-10-30T09:52:51.779Z,1004.25
2022-10-30T09:53:51.795Z,1004.25
2022-10-30T09:54:51.758Z,1004.27
2022-10-30T09:55:51.750Z,1004.24
2022-10-30T09:56:51.728Z,1004.21
2022-10-30T09:57:51.717Z,1004.22
2022-10-30T09:58:51.707Z,1004.28
2022-10-30T09:59:51.695Z,1004.25
2022-10-30T10:00:51.743Z,1004.27
2022-10-30T10:01:51.708Z,1004.29
2022-10-30T10:02:51.727Z,1004.29
2022-10-30T10:04:51.677Z,1004.24
2022-10-30T10:05:51.617Z,1004.26
2022-10-30T10:06:51.607Z,1004.24
2022-10-30T10:07:51.598Z,1004.23
2022-10-30T10:08:51.579Z,1004.26
2022-10-30T10:09:51.619Z,1004.26
2022-10-30T10:10:51.572Z,1004.23
2022-10-30T10:11:51.547Z,1004.24
2022-10-30T10:12:52.467Z,1004.21
2022-10-30T10:13:51.548Z,1004.28
2022-10-30T10:14:51.504Z,1004.26
2022-10-30T10:15:51.500Z,1004.25
2022-10-30T10:16:51.497Z,1004.26
2022-10-30T10:17:51.477Z,1004.25
2022-10-30T10:18:51.457Z,1004.27
2022-10-30T10:19:51.456Z,1004.29
2022-10-30T10:20:51.437Z,1004.26
2022-10-30T10:21:51.448Z,1004.24
2022-10-30T10:22:51.410Z,1004.27
2022-10-30T10:23:51.405Z,1004.29
2022-10-30T10:24:51.384Z,1004.26
2022-10-30T10:25:51.375Z,1004.30
2022-10-30T10:26:51.384Z,1004.29
2022-10-30T10:27:51.356Z,1004.30
2022-10-30T10:28:51.336Z,1004.34
2022-10-30T10:29:51.338Z,1004.26
2022-10-30T10:30:51.314Z,1004.28
2022-10-30T10:31:51.339Z,1004.31
2022-10-30T10:32:51.290Z,1004.25
2022-10-30T10:33:53.725Z,1004.21
2022-10-30T10:34:51.277Z,1004.19
2022-10-30T10:35:51.250Z,1004.21
2022-10-30T10:36:51.247Z,1004.20
2022-10-30T10:37:51.232Z,1004.20
2022-10-30T10:38:51.230Z,1004.22
2022-10-30T10:39:51.203Z,1004.21
2022-10-30T10:40:51.197Z,1004.22
2022-10-30T10:41:53.670Z,1004.22
2022-10-30T10:42:51.172Z,1004.21
2022-10-30T10:43:51.158Z,1004.24
2022-10-30T10:44:51.142Z,1004.18
2022-10-30T10:45:51.133Z,1004.20
2022-10-30T10:46:51.138Z,1004.18
2022-10-30T10:47:51.165Z,1004.16
2022-10-30T10:48:51.099Z,1004.21
2022-10-30T10:49:51.086Z,1004.16
2022-10-30T10:50:51.075Z,1004.15
2022-10-30T10:51:51.064Z,1004.14
2022-10-30T10:52:51.053Z,1004.14
2022-10-30T10:53:51.075Z,1004.16
2022-10-30T10:54:51.031Z,1004.11
2022-10-30T10:55:51.018Z,1004.13
2022-10-30T10:56:51.003Z,1004.08
2022-10-30T10:57:51.004Z,1004.09
2022-10-30T10:58:51.009Z,1004.09
2022-10-30T10:59:50.996Z,1004.09
2022-10-30T11:00:50.961Z,1004.07
2022-10-30T11:01:51.068Z,1004.09
2022-10-30T11:02:50.936Z,1004.09
2022-10-30T11:03:50.948Z,1004.09
2022-10-30T11:04:50.913Z,1004.07
2022-10-30T11:05:50.916Z,1004.09
2022-10-30T11:06:50.923Z,1004.07
2022-10-30T11:07:50.876Z,1004.11
2022-10-30T11:08:50.866Z,1004.08
2022-10-30T11:09:50.852Z,1004.07
2022-10-30T11:10:50.870Z,1004.07
2022-10-30T11:11:50.885Z,1004.10
2022-10-30T11:12:50.840Z,1004.07
2022-10-30T11:13:50.813Z,1004.06
2022-10-30T11:14:50.797Z,1004.07
2022-10-30T11:15:50.795Z,1003.98
2022-10-30T11:16:50.774Z,1003.99
2022-10-30T11:17:50.809Z,1003.97
2022-10-30T11:18:50.764Z,1003.94
2022-10-30T11:19:51.905Z,1003.91
2022-10-30T11:20:50.727Z,1003.92
2022-10-30T11:21:50.720Z,1003.89
2022-10-30T11:22:50.713Z,1003.88
2022-10-30T11:23:50.698Z,1003.84
2022-10-30T11:24:50.687Z,1003.84
2022-10-30T11:25:50.681Z,1003.74
2022-10-30T11:26:50.662Z,1003.78
2022-10-30T11:27:50.677Z,1003.76
2022-10-30T11:28:50.685Z,1003.77
2022-10-30T11:29:50.636Z,1003.78
2022-10-30T11:30:50.616Z,1003.72
2022-10-30T11:31:50.681Z,1003.72
2022-10-30T11:32:50.801Z,1003.72
2022-10-30T11:33:50.587Z,1003.73
2022-10-30T11:34:50.574Z,1003.69
2022-10-30T11:35:50.563Z,1003.67
2022-10-30T11:36:50.557Z,1003.71
2022-10-30T11:37:50.750Z,1003.68
2022-10-30T11:38:50.528Z,1003.68
2022-10-30T11:39:50.522Z,1003.67
2022-10-30T11:40:50.504Z,1003.68
2022-10-30T11:41:54.695Z,1003.65
2022-10-30T11:42:50.512Z,1003.63
2022-10-30T11:43:50.475Z,1003.65
2022-10-30T11:44:50.459Z,1003.69
2022-10-30T11:45:50.454Z,1003.72
2022-10-30T11:46:50.441Z,1003.74
2022-10-30T11:47:50.460Z,1003.73
2022-10-30T11:48:50.416Z,1003.71
2022-10-30T11:49:50.409Z,1003.78
2022-10-30T11:50:50.469Z,1003.72
2022-10-30T11:51:50.398Z,1003.73
2022-10-30T11:52:50.429Z,1003.75
2022-10-30T11:53:50.372Z,1003.75
2022-10-30T11:54:50.353Z,1003.74
2022-10-30T11:55:50.353Z,1003.73
2022-10-30T11:56:50.329Z,1003.72
2022-10-30T11:57:50.329Z,1003.66
2022-10-30T11:58:50.318Z,1003.66
2022-10-30T11:59:50.328Z,1003.64
2022-10-30T12:00:50.294Z,1003.65
2022-10-30T12:01:50.354Z,1003.64
2022-10-30T12:02:50.263Z,1003.66
2022-10-30T12:03:50.262Z,1003.64
2022-10-30T12:04:50.249Z,1003.63
2022-10-30T12:05:50.478Z,1003.59
2022-10-30T12:06:50.219Z,1003.59
2022-10-30T12:07:50.224Z,1003.63